Terminal Aerodrome Forecast
Issued by NWS

Home | Current Version | Previous Version | Text Only | Print | Product List | Glossary On
Versions: 1 2 3 4 5 6 7 8 9 10 11 12 13 14
343
FTUS43 KMPX 251120
TAFRWF
TAF
KRWF 251120Z 2512/2612 13010G17KT P6SM SCT200
     FM251700 18011KT P6SM SCT050 BKN250
     FM260000 24008KT P6SM SHRA VCTS BKN040CB PROB30 2601/2605 2SM
      TSRA SCT015 BKN040CB
     FM260900 35006KT P6SM SCT005 OVC250=

USA.gov is the U.S. government's official web portal to all federal, state and local government web resources and services.